M/y Ava — MMPY8 — position and weather

sailwx.info

Track history (hours):
 
Tides and Currents Weather Stations Pressure Air Temp Water Temp Dewpoint Dewpoint Depression Visibility Wind Speed Wind Dir Waves Ship Positions

M/y Ava

Last reported at 2015-Aug-19 13:33 UTC. Time now 2015-Sep-04 14:34 UTC.
Position N 43°35' E 007°12'.
Warning: this ship's position is 16 days out of date.

Length 40 m; draft 2.8 m.

Type: Pleasure craft. MMSI: 232358000.

Date/timePositionNaut miles runAvg speedWind from/ knotsBaromVisibWave heightAir tempDewpointWater temp
2015-Aug-19 13:33N 43°35' E 007°12'11 9.6
2015-Aug-19 12:27N 43°30' E 006°59'2 0.1
2015-Aug-18 19:31N 43°30' E 006°57'0 0.0
2015-Aug-18 18:33N 43°30' E 006°57'0 0.0
2015-Aug-18 17:33N 43°30' E 006°57'0 0.1
2015-Aug-18 16:32N 43°31' E 006°57'9 9.1
2015-Aug-18 15:33N 43°23' E 006°50'1111.0
2015-Aug-18 14:33N 43°16' E 006°38'  
2015-Aug-15 17:24N 43°16' E 006°38'1 0.9
2015-Aug-15 16:31N 43°16' E 006°37'0 0.0
2015-Aug-15 15:29N 43°16' E 006°37'0 0.0
2015-Aug-15 14:23N 43°16' E 006°37'0 0.0
2015-Aug-15 13:32N 43°16' E 006°37'0 0.0
2015-Aug-15 12:33N 43°16' E 006°37'0 0.0
2015-Aug-15 11:32N 43°16' E 006°37'0 0.0
2015-Aug-15 10:33N 43°16' E 006°37'0 0.0
2015-Aug-15 09:33N 43°16' E 006°37'0 0.0
2015-Aug-15 08:33N 43°16' E 006°37'0 0.0
2015-Aug-15 07:32N 43°16' E 006°37'0 0.0
2015-Aug-15 06:33N 43°16' E 006°37'0 0.0
2015-Aug-15 05:31N 43°16' E 006°37'0 0.0
2015-Aug-15 04:31N 43°16' E 006°37'0 0.0
2015-Aug-15 03:33N 43°16' E 006°37'0 0.0
2015-Aug-15 02:33N 43°16' E 006°37'0 0.0
2015-Aug-15 01:33N 43°16' E 006°37'0 0.0
2015-Aug-15 00:31N 43°16' E 006°37'0 0.0
2015-Aug-14 23:33N 43°16' E 006°37'0 0.0
2015-Aug-14 22:33N 43°16' E 006°37'0 0.0
2015-Aug-14 21:33N 43°16' E 006°37'0 0.0
2015-Aug-14 20:34N 43°16' E 006°37'0 0.0
2015-Aug-14 19:28N 43°16' E 006°37'0 0.0
2015-Aug-14 18:27N 43°16' E 006°37'0 0.0
2015-Aug-14 17:33N 43°16' E 006°37'4 3.5
2015-Aug-14 16:26N 43°15' E 006°42'2 2.1
2015-Aug-14 15:31N 43°13' E 006°40'0 0.0
2015-Aug-14 14:33N 43°13' E 006°40'0 0.0
2015-Aug-14 13:32N 43°13' E 006°40'0 0.0
2015-Aug-14 12:33N 43°13' E 006°40'0 0.0
2015-Aug-14 11:24N 43°13' E 006°40'4 4.6
2015-Aug-14 10:33N 43°16' E 006°43'1111.0
2015-Aug-14 09:33N 43°24' E 006°54'8 0.5
2015-Aug-13 17:04N 43°31' E 006°60'611.5
2015-Aug-13 16:33N 43°26' E 006°55'1211.6
2015-Aug-13 15:33N 43°19' E 006°43'4 1.3
2015-Aug-13 12:33N 43°17' E 006°38'1111.3
2015-Aug-13 11:33N 43°24' E 006°51'10 3.1
2015-Aug-13 08:12N 43°30' E 007°02'711.2
2015-Aug-13 07:33N 43°34' E 007°11'6 0.3
2015-Aug-12 11:17N 43°39' E 007°15'3 3.7
2015-Aug-12 10:33N 43°39' E 007°11'4 0.2
2015-Aug-11 13:33N 43°36' E 007°14'1410.9
2015-Aug-11 12:18N 43°27' E 006°60'810.6
2015-Aug-11 11:33N 43°22' E 006°51'1110.8
2015-Aug-11 10:32N 43°17' E 006°38'1 0.0
2015-Aug-09 15:32N 43°17' E 006°39'3 3.1
2015-Aug-09 14:28N 43°14' E 006°40'  
Track history (hours):
 
Tides and Currents Weather Stations Pressure Air Temp Water Temp Dewpoint Dewpoint Depression Visibility Wind Speed Wind Dir Waves Ship Positions

M/y Ava

Last reported at 2015-Aug-19 13:33 UTC. Time now 2015-Sep-04 14:34 UTC.
Position N 43°35' E 007°12'.
Warning: this ship's position is 16 days out of date.

Length 40 m; draft 2.8 m.

Type: Pleasure craft. MMSI: 232358000.

Date/timePositionNaut miles runAvg speedWind from/ knotsBaromVisibWave heightAir tempDewpointWater temp
2015-Aug-19 13:33N 43°35' E 007°12'11 9.6
2015-Aug-19 12:27N 43°30' E 006°59'2 0.1
2015-Aug-18 19:31N 43°30' E 006°57'0 0.0
2015-Aug-18 18:33N 43°30' E 006°57'0 0.0
2015-Aug-18 17:33N 43°30' E 006°57'0 0.1
2015-Aug-18 16:32N 43°31' E 006°57'9 9.1
2015-Aug-18 15:33N 43°23' E 006°50'1111.0
2015-Aug-18 14:33N 43°16' E 006°38'  
2015-Aug-15 17:24N 43°16' E 006°38'1 0.9
2015-Aug-15 16:31N 43°16' E 006°37'0 0.0
2015-Aug-15 15:29N 43°16' E 006°37'0 0.0
2015-Aug-15 14:23N 43°16' E 006°37'0 0.0
2015-Aug-15 13:32N 43°16' E 006°37'0 0.0
2015-Aug-15 12:33N 43°16' E 006°37'0 0.0
2015-Aug-15 11:32N 43°16' E 006°37'0 0.0
2015-Aug-15 10:33N 43°16' E 006°37'0 0.0
2015-Aug-15 09:33N 43°16' E 006°37'0 0.0
2015-Aug-15 08:33N 43°16' E 006°37'0 0.0
2015-Aug-15 07:32N 43°16' E 006°37'0 0.0
2015-Aug-15 06:33N 43°16' E 006°37'0 0.0
2015-Aug-15 05:31N 43°16' E 006°37'0 0.0
2015-Aug-15 04:31N 43°16' E 006°37'0 0.0
2015-Aug-15 03:33N 43°16' E 006°37'0 0.0
2015-Aug-15 02:33N 43°16' E 006°37'0 0.0
2015-Aug-15 01:33N 43°16' E 006°37'0 0.0
2015-Aug-15 00:31N 43°16' E 006°37'0 0.0
2015-Aug-14 23:33N 43°16' E 006°37'0 0.0
2015-Aug-14 22:33N 43°16' E 006°37'0 0.0
2015-Aug-14 21:33N 43°16' E 006°37'0 0.0
2015-Aug-14 20:34N 43°16' E 006°37'0 0.0
2015-Aug-14 19:28N 43°16' E 006°37'0 0.0
2015-Aug-14 18:27N 43°16' E 006°37'0 0.0
2015-Aug-14 17:33N 43°16' E 006°37'4 3.5
2015-Aug-14 16:26N 43°15' E 006°42'2 2.1
2015-Aug-14 15:31N 43°13' E 006°40'0 0.0
2015-Aug-14 14:33N 43°13' E 006°40'0 0.0
2015-Aug-14 13:32N 43°13' E 006°40'0 0.0
2015-Aug-14 12:33N 43°13' E 006°40'0 0.0
2015-Aug-14 11:24N 43°13' E 006°40'4 4.6
2015-Aug-14 10:33N 43°16' E 006°43'1111.0
2015-Aug-14 09:33N 43°24' E 006°54'8 0.5
2015-Aug-13 17:04N 43°31' E 006°60'611.5
2015-Aug-13 16:33N 43°26' E 006°55'1211.6
2015-Aug-13 15:33N 43°19' E 006°43'4 1.3
2015-Aug-13 12:33N 43°17' E 006°38'1111.3
2015-Aug-13 11:33N 43°24' E 006°51'10 3.1
2015-Aug-13 08:12N 43°30' E 007°02'711.2
2015-Aug-13 07:33N 43°34' E 007°11'6 0.3
2015-Aug-12 11:17N 43°39' E 007°15'3 3.7
2015-Aug-12 10:33N 43°39' E 007°11'4 0.2
2015-Aug-11 13:33N 43°36' E 007°14'1410.9
2015-Aug-11 12:18N 43°27' E 006°60'810.6
2015-Aug-11 11:33N 43°22' E 006°51'1110.8
2015-Aug-11 10:32N 43°17' E 006°38'1 0.0
2015-Aug-09 15:32N 43°17' E 006°39'3 3.1
2015-Aug-09 14:28N 43°14' E 006°40'  

Dump ship's entire track history